Time;durP1;ratioP1;P1;durP2;ratioP2;P2;SDS_P1;SDS_P2;PMS_P1;PMS_P2;Temp;Humidity;BMP_temperature;BMP_pressure;BME280_temperature;BME280_humidity;BME280_pressure;Samples;Min_cycle;Max_cycle;Signal;HPM_P1;HPM_P2
2021/08/30 00:01:56;;;;;;;8.73;7.13;;;;;;;10.96;100.00;102024.06;4830754;29;20023;-85
2021/08/30 00:04:22;;;;;;;8.95;7.57;;;;;;;10.90;100.00;102036.41;4826655;29;20026;-84
2021/08/30 00:06:49;;;;;;;8.05;7.25;;;;;;;11.32;100.00;102086.47;4812186;30;20027;-84
2021/08/30 00:09:16;;;;;;;8.10;7.20;;;;;;;11.58;100.00;102133.91;4798300;29;20023;-84
2021/08/30 00:11:42;;;;;;;8.70;7.78;;;;;;;10.55;100.00;101964.94;4815251;29;20103;-85
2021/08/30 00:14:08;;;;;;;10.55;8.38;;;;;;;11.61;100.00;102120.06;4830400;29;20023;-84
2021/08/30 00:16:33;;;;;;;9.02;8.13;;;;;;;11.07;100.00;102041.75;4829464;29;20037;-83
2021/08/30 00:18:59;;;;;;;9.35;7.43;;;;;;;11.65;100.00;102127.63;4831007;29;20094;-85
2021/08/30 00:21:25;;;;;;;9.10;7.60;;;;;;;11.24;100.00;102083.78;4814832;29;20023;-84
2021/08/30 00:23:57;;;;;;;8.25;7.40;;;;;;;10.81;100.00;102034.72;4814666;29;20031;-85
2021/08/30 00:26:23;;;;;;;8.70;7.80;;;;;;;11.49;100.00;102141.19;4830783;29;20040;-85
2021/08/30 00:28:48;;;;;;;9.68;7.65;;;;;;;10.66;100.00;102010.34;4799516;29;20309;-85
2021/08/30 00:31:15;;;;;;;9.73;8.07;;;;;;;10.73;100.00;102027.50;4814508;29;20038;-85
2021/08/30 00:33:41;;;;;;;8.65;7.72;;;;;;;10.74;100.00;102029.19;4830234;29;20044;-85
2021/08/30 00:36:07;;;;;;;10.95;7.85;;;;;;;11.46;100.00;102141.53;4814497;29;20031;-85
2021/08/30 00:38:32;;;;;;;8.93;8.02;;;;;;;10.87;100.00;102054.75;4820747;29;20042;-85
2021/08/30 00:40:59;;;;;;;11.40;8.13;;;;;;;11.48;100.00;102137.63;4939614;24;20039;-83
2021/08/30 00:43:25;;;;;;;12.80;8.95;;;;;;;10.95;100.00;102047.47;4829798;29;20027;-84
2021/08/30 00:45:51;;;;;;;9.57;8.60;;;;;;;11.57;100.00;102151.94;4830586;29;20102;-85
2021/08/30 00:48:17;;;;;;;12.52;9.05;;;;;;;10.90;100.00;102032.88;4848357;29;20015;-85
2021/08/30 00:50:43;;;;;;;10.23;8.70;;;;;;;10.82;100.00;102018.38;4847357;29;20055;-85
2021/08/30 00:53:09;;;;;;;8.75;7.85;;;;;;;11.58;100.00;102150.06;4839619;29;20059;-85
2021/08/30 00:55:35;;;;;;;10.02;8.63;;;;;;;11.48;100.00;102151.09;4847152;29;20095;-85
2021/08/30 00:58:04;;;;;;;11.38;8.85;;;;;;;10.71;100.00;102024.13;4847961;29;20015;-84
2021/08/30 01:00:30;;;;;;;8.75;7.85;;;;;;;11.36;100.00;102127.41;4831908;29;20018;-86
2021/08/30 01:02:55;;;;;;;11.27;8.98;;;;;;;11.39;100.00;102152.16;4846935;29;20081;-85
2021/08/30 01:05:22;;;;;;;11.00;9.27;;;;;;;11.39;100.00;102135.13;4847484;29;20010;-83
2021/08/30 01:08:08;;;;;;;12.13;9.27;;;;;;;10.84;100.00;102050.53;4832346;29;20017;-84
2021/08/30 01:10:53;;;;;;;12.13;9.20;;;;;;;10.55;100.00;101997.22;4846801;29;20046;-85
2021/08/30 01:13:33;;;;;;;12.00;8.55;;;;;;;11.48;100.00;102142.19;4830775;29;20011;-85
2021/08/30 01:16:02;;;;;;;12.15;8.60;;;;;;;10.78;100.00;102032.38;4831637;29;20020;-84
2021/08/30 01:18:30;;;;;;;12.43;9.55;;;;;;;10.70;100.00;102017.06;4832154;29;20014;-84
2021/08/30 01:21:03;;;;;;;9.60;8.02;;;;;;;11.04;100.00;102069.88;4847184;29;20022;-84
2021/08/30 01:23:33;;;;;;;10.15;8.57;;;;;;;10.79;100.00;102026.84;4847268;29;20025;-84
2021/08/30 01:26:02;;;;;;;9.32;8.40;;;;;;;11.07;100.00;102074.91;4847053;29;20018;-85
2021/08/30 01:28:37;;;;;;;10.35;8.60;;;;;;;10.99;100.00;102056.94;4846582;29;20034;-84
2021/08/30 01:31:26;;;;;;;11.25;8.43;;;;;;;10.68;100.00;102027.16;4846331;29;20034;-85
2021/08/30 01:33:52;;;;;;;9.55;8.65;;;;;;;10.55;100.00;101999.91;4846818;29;20057;-85
2021/08/30 01:36:20;;;;;;;11.50;8.70;;;;;;;10.70;100.00;102027.84;4815731;29;20034;-85
2021/08/30 01:38:48;;;;;;;11.93;9.25;;;;;;;10.65;100.00;102021.28;4847109;29;20126;-84
2021/08/30 01:41:17;;;;;;;9.43;8.00;;;;;;;10.84;100.00;102057.78;4846877;29;20034;-85
2021/08/30 01:43:45;;;;;;;13.30;9.38;;;;;;;11.37;100.00;102161.41;4847558;29;20065;-85
2021/08/30 01:46:13;;;;;;;10.85;8.90;;;;;;;10.46;100.00;102009.00;4831382;29;20030;-84
2021/08/30 01:48:47;;;;;;;12.25;9.30;;;;;;;10.90;100.00;102067.88;4846671;29;20025;-85
2021/08/30 01:51:14;;;;;;;12.13;9.38;;;;;;;11.36;100.00;102157.88;4831771;29;20031;-84
2021/08/30 01:53:40;;;;;;;12.73;8.95;;;;;;;10.73;100.00;102054.44;4847442;29;20051;-85
2021/08/30 01:56:07;;;;;;;10.93;9.25;;;;;;;10.60;100.00;102042.50;5571547;24;20016;-78
2021/08/30 02:01:00;;;;;;;11.60;9.80;;;;;;;10.37;100.00;102020.81;4847097;29;20034;-84
2021/08/30 02:03:29;;;;;;;12.77;9.48;;;;;;;10.82;100.00;102093.78;4844856;29;20011;-85
2021/08/30 02:06:04;;;;;;;12.48;10.00;;;;;;;10.88;100.00;102088.75;4846784;29;20052;-85
2021/08/30 02:08:31;;;;;;;12.02;10.35;;;;;;;10.91;100.00;102088.41;4845182;29;20034;-84
2021/08/30 02:11:06;;;;;;;15.85;10.05;;;;;;;10.38;100.00;101998.25;4845286;29;20058;-86
2021/08/30 02:13:32;;;;;;;13.50;9.77;;;;;;;10.95;100.00;102089.72;4863619;29;20005;-85
2021/08/30 02:15:59;;;;;;;16.17;10.00;;;;;;;10.66;100.00;102048.03;4864627;29;20041;-85
2021/08/30 02:18:37;;;;;;;13.85;10.55;;;;;;;11.27;100.00;102140.03;4846298;29;20090;-85
2021/08/30 02:21:16;;;;;;;13.45;10.48;;;;;;;11.27;100.00;102148.97;4846404;29;20050;-85
2021/08/30 02:23:56;;;;;;;14.32;10.68;;;;;;;10.64;100.00;102039.28;4846651;29;20059;-83
2021/08/30 02:26:28;;;;;;;12.10;10.10;;;;;;;10.59;100.00;102052.41;4847509;29;20017;-85
2021/08/30 02:31:31;;;;;;;14.35;10.48;;;;;;;10.31;100.00;102007.00;4877585;24;20069;-85
2021/08/30 02:33:59;;;;;;;13.68;10.38;;;;;;;10.27;100.00;102008.34;4816237;29;20024;-85
2021/08/30 02:36:26;;;;;;;14.23;10.88;;;;;;;10.62;100.00;102062.81;4801318;30;20030;-85
2021/08/30 02:38:56;;;;;;;13.23;10.73;;;;;;;10.30;100.00;102020.63;4813091;30;20027;-85
2021/08/30 02:41:24;;;;;;;13.73;10.82;;;;;;;10.58;100.00;102061.50;4811671;30;20023;-86
2021/08/30 02:43:51;;;;;;;14.57;10.07;;;;;;;11.04;100.00;102150.66;4814122;29;20043;-84
2021/08/30 02:46:17;;;;;;;12.82;9.57;;;;;;;10.50;100.00;102062.34;4797241;29;20076;-84
2021/08/30 02:48:46;;;;;;;11.73;10.05;;;;;;;10.39;100.00;102041.13;4813574;29;20020;-85
2021/08/30 02:51:12;;;;;;;13.25;10.18;;;;;;;10.25;100.00;102021.09;4814243;29;20015;-84
2021/08/30 02:53:39;;;;;;;12.50;9.63;;;;;;;10.47;100.00;102051.06;4814789;29;20027;-83
2021/08/30 02:56:05;;;;;;;14.82;10.68;;;;;;;10.15;100.00;102001.56;4797994;29;20027;-84
2021/08/30 02:58:31;;;;;;;12.15;9.95;;;;;;;10.56;100.00;102071.56;4814475;29;20082;-84
2021/08/30 03:00:57;;;;;;;11.90;9.95;;;;;;;11.08;100.00;102164.63;4814559;29;20019;-84
2021/08/30 03:03:23;;;;;;;12.93;10.18;;;;;;;10.18;100.00;102012.00;4798029;29;20051;-83
2021/08/30 03:05:51;;;;;;;12.77;9.73;;;;;;;10.53;100.00;102071.94;4796666;30;20035;-84
2021/08/30 03:08:18;;;;;;;16.63;10.55;;;;;;;10.40;100.00;102048.22;4812335;29;20031;-85
2021/08/30 03:10:46;;;;;;;15.65;10.82;;;;;;;10.50;100.00;102069.56;4796398;30;20027;-85
2021/08/30 03:13:12;;;;;;;14.55;10.52;;;;;;;11.02;100.00;102161.59;4814834;29;20095;-85
2021/08/30 03:15:39;;;;;;;13.73;10.88;;;;;;;10.99;100.00;102163.78;4797705;29;20026;-84
2021/08/30 03:18:09;;;;;;;13.40;10.55;;;;;;;10.98;100.00;102157.56;4822802;29;20042;-85
2021/08/30 03:20:35;;;;;;;15.00;10.43;;;;;;;11.00;100.00;102158.25;4814204;29;20003;-84
2021/08/30 03:23:02;;;;;;;14.35;10.63;;;;;;;10.05;100.00;102006.28;4816229;29;20018;-85
2021/08/30 03:25:32;;;;;;;14.77;10.82;;;;;;;10.95;100.00;102163.28;4811751;29;20046;-85
2021/08/30 03:27:59;;;;;;;17.02;10.55;;;;;;;10.34;100.00;102063.16;4795559;30;20015;-85
2021/08/30 03:30:25;;;;;;;18.35;10.70;;;;;;;10.30;100.00;102048.38;4811990;29;20067;-85
2021/08/30 03:32:52;;;;;;;16.60;10.68;;;;;;;10.28;100.00;102055.75;4812112;29;20038;-85
2021/08/30 03:35:22;;;;;;;15.35;11.20;;;;;;;10.90;100.00;102154.06;4811812;29;20034;-84
2021/08/30 03:37:48;;;;;;;15.70;11.10;;;;;;;10.21;100.00;102043.13;4830471;29;20038;-84
2021/08/30 03:40:15;;;;;;;15.02;11.35;;;;;;;10.06;100.00;102022.22;4829311;29;20011;-85
2021/08/30 03:42:42;;;;;;;17.75;12.00;;;;;;;10.40;100.00;102075.13;4809805;29;20015;-86
2021/08/30 03:45:10;;;;;;;14.93;10.77;;;;;;;10.33;100.00;102069.56;4799726;30;20045;-85
2021/08/30 03:47:38;;;;;;;14.73;11.02;;;;;;;9.94;100.00;102010.13;4813788;29;20035;-85
2021/08/30 03:50:05;;;;;;;14.68;11.77;;;;;;;10.00;100.00;102017.53;4810436;30;20111;-83
2021/08/30 03:52:37;;;;;;;14.80;11.00;;;;;;;10.18;100.00;102049.66;4804896;29;20026;-84
2021/08/30 03:55:03;;;;;;;14.90;10.88;;;;;;;10.17;100.00;102047.16;4823787;29;20031;-84
2021/08/30 03:57:30;;;;;;;15.38;11.02;;;;;;;10.39;100.00;102089.56;4831750;29;20022;-84
2021/08/30 03:59:58;;;;;;;15.40;11.45;;;;;;;10.03;100.00;102022.59;4812179;29;20035;-85
2021/08/30 04:02:29;;;;;;;16.13;10.98;;;;;;;10.01;100.00;102021.91;4810576;29;20058;-85
2021/08/30 04:04:55;;;;;;;14.95;11.40;;;;;;;10.50;100.00;102091.09;4803804;29;20028;-85
2021/08/30 04:07:21;;;;;;;17.92;12.18;;;;;;;10.13;100.00;102014.34;4807434;29;20049;-84
2021/08/30 04:09:51;;;;;;;15.70;11.32;;;;;;;10.15;100.00;102014.19;4793967;29;20018;-84
2021/08/30 04:12:21;;;;;;;17.55;11.77;;;;;;;10.67;100.00;102087.41;4806933;29;20015;-82
2021/08/30 04:14:49;;;;;;;19.38;12.45;;;;;;;10.45;100.00;102056.59;4805343;29;20035;-84
2021/08/30 04:17:17;;;;;;;16.50;11.43;;;;;;;10.47;100.00;102061.84;4807029;29;20031;-82
2021/08/30 04:19:42;;;;;;;18.20;11.85;;;;;;;11.19;100.00;102165.16;4808613;29;20028;-83
2021/08/30 04:22:09;;;;;;;15.50;11.23;;;;;;;10.32;100.00;102029.34;4790233;30;20027;-83
2021/08/30 04:24:35;;;;;;;20.65;12.20;;;;;;;10.56;100.00;102023.13;4790095;30;20039;-83
2021/08/30 04:27:02;;;;;;;19.27;11.70;;;;;;;10.89;100.00;102033.84;4804911;30;20084;-84
2021/08/30 04:29:29;;;;;;;15.98;11.70;;;;;;;11.37;100.00;102078.72;4808165;29;20035;-82
2021/08/30 04:31:58;;;;;;;17.17;11.63;;;;;;;11.73;100.00;102121.38;4803913;30;20019;-84
2021/08/30 04:34:24;;;;;;;18.83;11.75;;;;;;;11.65;100.00;102089.88;4804207;29;20091;-85
2021/08/30 04:52:18;;;;;;;16.08;10.60;;;;;;;13.51;96.03;102181.59;4826442;29;20039;-84
2021/08/30 04:54:45;;;;;;;14.23;9.82;;;;;;;13.02;95.31;102085.63;4811892;29;20058;-85
2021/08/30 04:57:11;;;;;;;12.40;9.32;;;;;;;13.01;94.24;102051.50;4813356;29;20205;-84
2021/08/30 04:59:37;;;;;;;12.27;9.93;;;;;;;13.93;93.41;102174.72;4813351;29;20039;-84
2021/08/30 05:02:03;;;;;;;11.73;9.25;;;;;;;14.12;92.48;102176.03;4829095;29;20026;-84
2021/08/30 05:04:30;;;;;;;11.68;8.88;;;;;;;13.44;91.74;102026.56;4827957;29;20023;-84
2021/08/30 05:06:56;;;;;;;12.75;8.52;;;;;;;14.14;90.70;102141.47;4812969;29;20064;-84
2021/08/30 05:09:22;;;;;;;12.10;9.07;;;;;;;14.07;89.55;102080.00;4812522;29;20108;-84
2021/08/30 05:11:47;;;;;;;11.50;8.68;;;;;;;14.32;88.56;102074.19;4829516;29;20023;-85
2021/08/30 05:14:13;;;;;;;11.35;8.40;;;;;;;14.01;88.37;102053.69;4829624;29;20034;-85
2021/08/30 05:16:39;;;;;;;10.90;8.77;;;;;;;14.24;87.65;102071.63;4814338;29;20044;-85
2021/08/30 05:19:04;;;;;;;11.88;8.60;;;;;;;15.00;87.67;102192.03;4813457;29;20039;-84
2021/08/30 05:21:32;;;;;;;10.23;7.95;;;;;;;14.41;86.99;102089.31;4828272;29;20041;-85
2021/08/30 05:23:58;;;;;;;9.50;8.20;;;;;;;14.40;87.25;102130.94;4826982;29;20018;-85
2021/08/30 05:26:26;;;;;;;9.48;7.85;;;;;;;13.70;87.49;102024.19;4810692;29;20031;-85
2021/08/30 05:28:55;;;;;;;10.13;7.40;;;;;;;14.51;87.08;102126.94;4805747;29;20039;-84
2021/08/30 05:31:20;;;;;;;9.05;7.43;;;;;;;15.04;86.14;102211.44;4821798;29;20095;-84
2021/08/30 05:33:48;;;;;;;9.65;8.10;;;;;;;14.31;85.62;102056.28;4824658;29;20058;-83
2021/08/30 05:36:13;;;;;;;8.75;7.20;;;;;;;14.60;84.82;102095.94;4802842;29;20039;-84
2021/08/30 05:38:39;;;;;;;9.35;7.18;;;;;;;14.71;86.64;102211.13;4809541;29;20054;-83
2021/08/30 05:41:05;;;;;;;9.30;7.32;;;;;;;13.11;91.02;102089.91;4821889;29;20039;-84
2021/08/30 05:43:31;;;;;;;8.88;7.07;;;;;;;12.54;93.82;102066.09;4892796;24;20044;-84
2021/08/30 05:45:58;;;;;;;10.68;7.95;;;;;;;13.07;95.18;102198.53;4811062;29;20055;-84
2021/08/30 05:48:24;;;;;;;9.30;7.32;;;;;;;12.55;95.38;102111.00;4808845;29;20034;-84
2021/08/30 05:50:49;;;;;;;7.68;6.82;;;;;;;12.23;96.27;102064.31;4821857;29;20078;-84
2021/08/30 05:53:15;;;;;;;8.07;6.72;;;;;;;13.06;96.58;102203.13;4812939;29;20039;-84
2021/08/30 05:55:40;;;;;;;11.30;7.22;;;;;;;12.39;96.28;102086.84;4826535;29;20037;-84
2021/08/30 05:58:06;;;;;;;8.77;6.68;;;;;;;12.55;96.04;102111.00;4808813;30;20031;-84
2021/08/30 06:00:32;;;;;;;10.25;6.75;;;;;;;12.34;96.12;102064.91;4814210;29;20029;-84
2021/08/30 06:02:58;;;;;;;7.53;6.60;;;;;;;12.27;95.98;102045.06;4826233;29;20088;-84
2021/08/30 06:05:24;;;;;;;7.35;6.38;;;;;;;12.64;95.77;102088.28;4825292;29;20022;-84
2021/08/30 06:07:50;;;;;;;9.68;6.50;;;;;;;13.41;95.92;102184.59;4824788;29;20102;-84
2021/08/30 06:10:16;;;;;;;7.22;6.07;;;;;;;13.13;95.78;102120.28;4793666;30;20027;-83
2021/08/30 06:12:42;;;;;;;7.20;6.07;;;;;;;12.62;95.49;102039.06;4814557;29;20048;-84
2021/08/30 06:15:10;;;;;;;7.28;5.80;;;;;;;12.95;94.95;102079.28;4826598;29;20031;-83
2021/08/30 06:17:37;;;;;;;7.80;5.95;;;;;;;12.58;94.75;102018.84;4825142;29;20054;-84
2021/08/30 06:20:02;;;;;;;7.68;5.22;;;;;;;12.55;94.75;102015.66;4811882;29;20099;-84
2021/08/30 06:22:28;;;;;;;7.13;5.70;;;;;;;12.98;94.18;102092.41;4809610;29;20027;-84
2021/08/30 06:24:56;;;;;;;6.50;5.53;;;;;;;13.29;94.45;102126.59;4826286;29;20069;-84
2021/08/30 06:27:22;;;;;;;5.82;4.97;;;;;;;13.54;94.06;102152.34;4811462;29;20390;-84
2021/08/30 06:29:48;;;;;;;7.25;5.43;;;;;;;13.76;93.94;102179.50;4827390;29;20034;-84
2021/08/30 06:32:14;;;;;;;5.72;5.03;;;;;;;13.77;93.88;102176.59;4811489;29;20082;-84
2021/08/30 06:34:40;;;;;;;5.75;4.70;;;;;;;13.97;93.32;102185.00;4811747;29;20091;-84
2021/08/30 06:37:06;;;;;;;7.47;4.95;;;;;;;14.00;92.84;102181.91;4827926;29;20034;-84
2021/08/30 06:39:32;;;;;;;5.22;4.63;;;;;;;14.04;92.68;102158.88;4825998;29;20023;-84
2021/08/30 06:41:57;;;;;;;5.82;4.80;;;;;;;14.25;92.01;102189.72;4811966;29;20031;-83
2021/08/30 06:44:23;;;;;;;6.18;4.40;;;;;;;14.12;91.87;102181.44;4827656;29;20084;-85
2021/08/30 06:46:48;;;;;;;7.53;4.20;;;;;;;14.26;91.16;102185.97;4811319;29;20030;-84
2021/08/30 06:49:14;;;;;;;5.05;4.55;;;;;;;14.28;91.25;102178.50;4797647;29;20078;-84
2021/08/30 06:51:39;;;;;;;6.80;4.43;;;;;;;14.37;90.63;102192.75;4811831;29;20039;-83
2021/08/30 06:54:05;;;;;;;6.63;4.28;;;;;;;14.37;90.40;102187.34;4812134;29;20019;-84
2021/08/30 06:56:30;;;;;;;5.10;3.75;;;;;;;14.52;89.68;102180.91;4813742;29;20038;-83
2021/08/30 06:58:56;;;;;;;4.97;4.43;;;;;;;14.47;89.63;102191.44;4812373;29;20027;-85
2021/08/30 07:01:21;;;;;;;5.50;4.22;;;;;;;14.46;89.52;102176.22;4828361;29;20031;-84
2021/08/30 07:03:48;;;;;;;8.00;4.63;;;;;;;14.53;89.63;102170.91;4811975;29;20035;-84
2021/08/30 07:06:13;;;;;;;6.60;4.50;;;;;;;14.65;89.33;102171.25;4811117;29;20045;-84
2021/08/30 07:08:39;;;;;;;4.28;3.83;;;;;;;14.70;88.63;102183.19;4827837;29;20014;-84
2021/08/30 07:11:04;;;;;;;5.88;4.25;;;;;;;14.78;88.52;102184.94;4787872;30;20043;-85
2021/08/30 07:13:30;;;;;;;6.53;4.30;;;;;;;14.82;88.32;102191.63;4824083;29;20071;-84
2021/08/30 07:15:55;;;;;;;6.55;3.92;;;;;;;14.76;87.74;102178.84;4811698;29;20378;-84
2021/08/30 07:18:20;;;;;;;4.80;4.25;;;;;;;15.01;88.30;102190.16;4828236;29;20037;-84
2021/08/30 07:20:48;;;;;;;5.18;3.65;;;;;;;15.18;87.74;102188.00;4799971;29;20043;-84
2021/08/30 07:23:15;;;;;;;4.55;4.15;;;;;;;15.09;86.97;102175.59;4800030;29;20025;-85
2021/08/30 07:25:41;;;;;;;5.78;4.00;;;;;;;15.15;87.17;102202.78;4814536;29;20066;-84
2021/08/30 07:28:08;;;;;;;6.82;4.05;;;;;;;14.97;87.01;102178.84;4829356;29;20214;-84
2021/08/30 07:30:33;;;;;;;7.13;4.63;;;;;;;15.25;86.97;102202.44;4830537;29;20050;-84
2021/08/30 07:32:58;;;;;;;5.47;4.55;;;;;;;15.22;86.42;102186.56;4814459;29;20011;-83
2021/08/30 07:35:25;;;;;;;7.18;4.00;;;;;;;15.35;86.18;102197.50;4815543;29;20039;-85
2021/08/30 07:37:50;;;;;;;9.40;4.07;;;;;;;15.31;86.00;102176.41;4813933;29;20019;-84
2021/08/30 07:40:16;;;;;;;5.32;3.80;;;;;;;15.54;85.89;102206.00;4814376;29;20026;-84
2021/08/30 07:42:42;;;;;;;5.25;3.70;;;;;;;15.54;84.55;102198.72;4830755;29;20087;-83
2021/08/30 07:45:07;;;;;;;5.28;3.67;;;;;;;15.57;84.04;102203.75;4815227;29;20054;-85
2021/08/30 07:47:33;;;;;;;4.35;3.80;;;;;;;15.69;83.90;102202.19;4800251;29;20023;-84
2021/08/30 07:52:34;;;;;;;6.35;3.80;;;;;;;14.36;83.02;102002.38;4897089;24;20066;-85
2021/08/30 07:54:59;;;;;;;5.07;4.00;;;;;;;15.64;83.12;102171.22;4816517;29;20018;-85
2021/08/30 08:00:00;;;;;;;6.72;3.95;;;;;;;14.96;82.11;102044.34;5162062;24;20049;-83
2021/08/30 08:02:26;;;;;;;5.82;3.72;;;;;;;15.35;81.97;102085.50;4852371;29;20049;-85
2021/08/30 08:04:52;;;;;;;5.38;4.05;;;;;;;15.70;81.12;102137.91;4867619;29;20026;-84
2021/08/30 08:07:19;;;;;;;4.28;3.63;;;;;;;15.07;80.86;102034.03;4851758;29;20047;-85
2021/08/30 08:09:44;;;;;;;4.35;3.72;;;;;;;15.36;80.67;102074.44;4867671;29;20060;-85
2021/08/30 08:12:10;;;;;;;5.15;3.58;;;;;;;15.10;80.62;102041.72;5188479;24;20055;-85
2021/08/30 08:14:35;;;;;;;5.82;3.78;;;;;;;16.27;80.88;102203.75;4813126;29;20015;-85
2021/08/30 08:17:01;;;;;;;6.82;3.78;;;;;;;15.81;79.87;102137.31;4812711;29;20075;-85
2021/08/30 08:19:27;;;;;;;6.20;3.40;;;;;;;15.20;79.83;102009.69;4789573;30;20008;-84
2021/08/30 08:21:55;;;;;;;5.82;3.88;;;;;;;15.71;79.47;102066.28;4779481;30;20069;-84
2021/08/30 08:29:31;;;;;;;4.97;3.80;;;;;;;16.51;78.32;102183.34;5222911;24;20049;-85
2021/08/30 08:37:08;;;;;;;10.65;4.07;;;;;;;15.56;78.58;102024.88;4810410;29;20069;-85
2021/08/30 08:39:34;;;;;;;5.65;3.92;;;;;;;15.68;78.08;102028.72;4795891;30;20039;-85
2021/08/30 08:47:14;;;;;;;5.80;4.10;;;;;;;16.54;78.02;102115.81;4855871;24;20039;-86
2021/08/30 09:41:23;;;;;;;5.60;4.32;;;;;;;17.79;71.96;102111.38;5702270;24;20044;-85
2021/08/30 09:51:28;;;;;;;4.32;3.92;;;;;;;17.52;70.92;101992.72;5036599;24;20043;-86
2021/08/30 09:59:07;;;;;;;5.53;3.72;;;;;;;17.79;70.44;102017.97;5536133;24;20101;-85
2021/08/30 10:01:40;;;;;;;6.32;4.20;;;;;;;18.13;70.32;102056.72;4829682;29;20011;-84
2021/08/30 12:37:08;;;;;;;3.72;2.75;;;;;;;21.76;49.76;102064.97;5880093;24;20352;31
2021/08/30 14:24:58;;;;;;;4.63;3.17;;;;;;;21.63;47.52;102062.50;5881678;24;20081;31
2021/08/30 15:03:34;;;;;;;5.07;3.28;;;;;;;20.77;47.25;101863.34;4811738;29;20032;-83
2021/08/30 15:06:01;;;;;;;5.05;2.97;;;;;;;20.92;47.49;101887.44;4812221;29;20019;-83
2021/08/30 15:08:28;;;;;;;5.40;3.40;;;;;;;21.81;47.76;102037.66;4799548;29;20036;-82
2021/08/30 15:13:30;;;;;;;4.40;3.28;;;;;;;21.20;47.46;101959.72;4812764;29;20055;-82
2021/08/30 15:15:56;;;;;;;3.90;3.13;;;;;;;21.43;47.76;102003.50;4783350;29;20023;-80
2021/08/30 15:18:22;;;;;;;3.42;2.72;;;;;;;20.37;47.01;101825.81;4811094;29;20099;-81
2021/08/30 15:25:58;;;;;;;4.65;2.85;;;;;;;20.90;46.79;101897.81;5022562;24;20045;-83
2021/08/30 15:28:24;;;;;;;3.30;3.00;;;;;;;20.73;47.34;101872.25;4885658;24;20066;-82
2021/08/30 15:30:53;;;;;;;4.45;2.95;;;;;;;20.62;47.28;101847.41;4969729;24;20080;-81
2021/08/30 16:19:21;;;;;;;4.53;3.20;;;;;;;20.96;48.52;102002.69;5651827;24;20043;-83
2021/08/30 16:37:18;;;;;;;4.30;2.90;;;;;;;20.04;49.20;101916.59;5459269;24;20042;-82
2021/08/30 16:47:22;;;;;;;3.25;2.83;;;;;;;19.66;49.80;101886.91;5148161;24;20047;-83
2021/08/30 17:00:26;;;;;;;3.60;2.75;;;;;;;20.36;49.93;102039.25;5456398;24;1459267;31
2021/08/30 17:05:27;;;;;;;3.83;2.83;;;;;;;19.29;50.90;101875.25;4851246;24;20046;-84
2021/08/30 17:15:56;;;;;;;4.03;3.10;;;;;;;18.89;50.70;101879.31;5390636;24;20112;-82
2021/08/30 17:18:22;;;;;;;5.55;2.78;;;;;;;19.86;50.73;102031.38;4810577;29;20040;-82
2021/08/30 17:20:50;;;;;;;3.38;2.83;;;;;;;19.82;50.19;102035.63;4810112;29;20055;-82
2021/08/30 17:23:16;;;;;;;2.95;2.65;;;;;;;18.40;50.01;101836.66;4811012;29;20030;-82
2021/08/30 17:25:42;;;;;;;4.00;2.85;;;;;;;18.38;49.77;101836.06;4811531;29;20039;-83
2021/08/30 17:28:10;;;;;;;3.67;2.90;;;;;;;18.53;49.60;101885.56;5061482;24;20021;-80
2021/08/30 17:30:36;;;;;;;3.90;2.90;;;;;;;18.42;50.02;101886.31;5076770;24;20039;-82
2021/08/30 17:33:07;;;;;;;3.40;2.75;;;;;;;18.68;50.15;101937.84;5264348;24;20094;-82
2021/08/30 17:40:46;;;;;;;5.13;2.95;;;;;;;17.96;51.68;101849.44;5073661;24;20047;-83
2021/08/30 17:43:12;;;;;;;4.43;2.90;;;;;;;19.20;51.56;102052.94;4827531;29;20110;-81
2021/08/30 17:45:38;;;;;;;3.33;2.80;;;;;;;17.68;51.34;101826.19;4811531;29;20011;-82
2021/08/30 17:48:06;;;;;;;3.63;2.75;;;;;;;17.89;52.00;101881.34;4809424;29;20031;-83
2021/08/30 17:53:07;;;;;;;4.95;3.38;;;;;;;17.84;52.74;101896.44;4981805;24;20051;-83
2021/08/30 17:55:33;;;;;;;4.25;2.85;;;;;;;18.05;53.14;101929.81;4817583;29;20058;-83
2021/08/30 18:03:12;;;;;;;4.10;3.20;;;;;;;17.44;54.70;101908.63;5453227;24;20046;-83
2021/08/30 18:05:38;;;;;;;4.47;3.40;;;;;;;17.52;55.15;101941.84;4811989;29;20030;-83
2021/08/30 20:17:29;;;;;;;5.18;3.75;;;;;;;13.75;76.79;102124.56;4537794;24;20333;-81
2021/08/30 20:19:56;;;;;;;7.72;4.30;;;;;;;12.51;77.10;101936.88;4828388;29;20046;-83
2021/08/30 20:24:56;;;;;;;7.50;4.32;;;;;;;12.69;78.04;101985.16;5557634;24;20058;-84
2021/08/30 20:27:22;;;;;;;5.93;4.13;;;;;;;13.63;78.13;102128.75;4831161;29;20051;-81
2021/08/30 20:29:48;;;;;;;7.18;4.22;;;;;;;13.05;78.41;102058.22;4814137;29;20027;-84
2021/08/30 20:32:14;;;;;;;6.28;4.30;;;;;;;13.56;78.57;102125.94;4825838;29;20030;-83
2021/08/30 20:34:41;;;;;;;6.50;3.92;;;;;;;12.92;79.15;102031.00;4812031;29;20073;-83
2021/08/30 20:39:48;;;;;;;7.45;3.88;;;;;;;12.06;79.92;101927.03;5064457;24;20045;-80
2021/08/30 20:50:03;;;;;;;5.38;3.90;;;;;;;12.74;80.54;102061.03;4914383;24;20051;-84
2021/08/30 20:55:04;;;;;;;5.10;3.95;;;;;;;13.07;80.83;102131.81;5470426;24;20089;-81
2021/08/30 20:57:30;;;;;;;7.47;4.20;;;;;;;11.70;81.36;101917.66;4795130;29;20032;-82
2021/08/30 20:59:55;;;;;;;6.25;4.30;;;;;;;11.82;81.33;101941.50;5552139;24;20059;-80
2021/08/30 21:02:21;;;;;;;9.55;4.32;;;;;;;12.96;81.80;102134.97;4826016;29;20092;-82
2021/08/30 21:04:48;;;;;;;7.25;4.38;;;;;;;12.93;81.99;102125.38;4824193;29;20022;-80
2021/08/30 21:07:14;;;;;;;9.00;4.47;;;;;;;11.59;82.37;101907.28;4811679;29;20042;-81
2021/08/30 21:09:41;;;;;;;7.90;3.92;;;;;;;12.86;82.62;102121.72;4828543;29;20023;-81
2021/08/30 21:12:07;;;;;;;6.63;4.30;;;;;;;12.78;82.60;102102.03;4828298;29;20072;-80
2021/08/30 21:14:34;;;;;;;5.13;4.18;;;;;;;11.62;82.41;101923.09;4811692;29;20031;-81
2021/08/30 21:17:00;;;;;;;5.43;4.28;;;;;;;12.90;82.94;102117.63;4828353;29;20090;-81
2021/08/30 21:19:25;;;;;;;7.78;4.50;;;;;;;11.99;83.05;101981.69;4812086;29;20026;-81
2021/08/30 21:21:51;;;;;;;7.75;4.63;;;;;;;12.91;83.08;102129.25;4828843;29;20011;-82
2021/08/30 21:24:17;;;;;;;8.48;4.53;;;;;;;12.30;83.57;102048.25;4814111;29;20023;-82
2021/08/30 21:26:43;;;;;;;5.30;4.15;;;;;;;12.55;83.48;102072.34;4826188;29;20015;-81
2021/08/30 21:29:09;;;;;;;6.07;4.50;;;;;;;12.81;83.61;102115.16;4829894;29;20019;-81
2021/08/30 21:31:35;;;;;;;6.25;4.20;;;;;;;12.49;83.60;102071.22;4827994;29;20050;-81
2021/08/30 21:34:01;;;;;;;7.15;4.25;;;;;;;11.73;83.66;101962.28;4827327;29;20026;-81
2021/08/30 21:36:28;;;;;;;5.75;4.30;;;;;;;12.16;83.90;102046.34;4827830;29;20109;-81
2021/08/30 21:38:57;;;;;;;7.07;4.63;;;;;;;11.44;84.38;101941.41;4829515;29;20040;-81
2021/08/30 21:41:22;;;;;;;6.07;4.30;;;;;;;11.75;84.78;101996.16;4829679;29;20118;-80
2021/08/30 21:43:48;;;;;;;6.47;4.28;;;;;;;11.21;84.76;101917.94;4797995;29;20035;-82
2021/08/30 21:46:14;;;;;;;6.28;4.40;;;;;;;11.47;85.15;101976.09;4813510;29;20022;-82
2021/08/30 21:48:40;;;;;;;7.15;4.50;;;;;;;12.34;85.79;102124.31;4828917;29;20015;-82
2021/08/30 21:51:05;;;;;;;7.25;4.55;;;;;;;10.95;85.54;101918.22;4827870;29;20039;-81
2021/08/30 21:53:31;;;;;;;5.55;4.32;;;;;;;11.02;85.96;101939.91;4813371;29;20054;-82
2021/08/30 21:55:58;;;;;;;7.82;4.57;;;;;;;11.48;86.13;102026.28;4813676;29;20018;-82
2021/08/30 21:58:24;;;;;;;6.32;4.90;;;;;;;12.19;86.22;102132.34;4829234;29;20095;-82
2021/08/30 22:00:50;;;;;;;7.65;4.57;;;;;;;11.30;86.60;101999.59;4813862;29;20052;-82
2021/08/30 22:03:15;;;;;;;5.97;4.38;;;;;;;12.12;86.70;102142.13;4828214;29;20045;-81
2021/08/30 22:05:42;;;;;;;7.43;4.47;;;;;;;12.11;87.07;102149.38;4812468;29;20159;-81
2021/08/30 22:08:08;;;;;;;6.57;4.60;;;;;;;10.74;87.13;101929.56;4827445;29;20015;-81
2021/08/30 22:10:35;;;;;;;5.65;3.75;;;;;;;10.68;87.18;101916.78;4811988;29;20030;-81
2021/08/30 22:13:01;;;;;;;7.70;4.85;;;;;;;11.18;87.46;102015.28;4827820;29;20030;-82